createdAt,value
2022-11-16T04:54:12.603Z,22.23
2022-11-16T04:56:39.092Z,20.40
2022-11-16T04:59:05.606Z,19.75
2022-11-16T05:01:53.523Z,19.25
2022-11-16T05:04:20.005Z,19.92
2022-11-16T05:06:47.292Z,18.00
2022-11-16T05:09:14.161Z,20.55
2022-11-16T05:11:40.862Z,22.98
2022-11-16T05:14:09.286Z,22.08
2022-11-16T05:16:35.912Z,21.35
2022-11-16T05:19:20.895Z,20.77
2022-11-16T05:21:47.359Z,22.00
2022-11-16T05:24:32.524Z,20.48
2022-11-16T05:26:59.546Z,20.90
2022-11-16T05:29:26.018Z,22.52
2022-11-16T05:31:52.462Z,22.30
2022-11-16T05:34:18.936Z,22.58
2022-11-16T05:36:45.438Z,21.65
2022-11-16T05:39:12.418Z,23.25
2022-11-16T05:41:38.865Z,24.92
2022-11-16T05:44:05.471Z,23.77
2022-11-16T05:46:34.633Z,26.00
2022-11-16T05:49:01.156Z,25.75
2022-11-16T05:51:27.777Z,25.52
2022-11-16T05:53:54.245Z,24.42
2022-11-16T05:56:20.744Z,25.00
2022-11-16T05:58:47.241Z,26.77
2022-11-16T06:01:13.703Z,25.83
2022-11-16T06:03:40.266Z,26.63
2022-11-16T06:06:07.004Z,25.85
2022-11-16T06:08:33.889Z,26.00
2022-11-16T06:11:05.213Z,27.30
2022-11-16T06:13:32.352Z,27.00
2022-11-16T06:16:01.100Z,27.15
2022-11-16T06:18:27.637Z,27.15
2022-11-16T06:20:54.523Z,26.40
2022-11-16T06:23:21.247Z,27.92
2022-11-16T06:25:47.697Z,26.15
2022-11-16T06:28:14.377Z,28.30
2022-11-16T06:30:41.217Z,28.67
2022-11-16T06:33:07.652Z,25.87
2022-11-16T06:35:34.303Z,28.83
2022-11-16T06:38:00.806Z,28.80
2022-11-16T06:40:27.295Z,28.05
2022-11-16T06:42:54.023Z,27.90
2022-11-16T06:45:20.644Z,26.13
2022-11-16T06:47:48.257Z,29.38
2022-11-16T06:50:19.065Z,29.52
2022-11-16T06:52:49.666Z,28.00
2022-11-16T06:55:16.808Z,29.17
2022-11-16T06:57:43.237Z,27.47
2022-11-16T07:00:11.073Z,30.98
2022-11-16T07:02:38.457Z,28.20
2022-11-16T07:05:05.687Z,25.95
2022-11-16T07:07:32.693Z,28.33
2022-11-16T07:09:59.320Z,29.93
2022-11-16T07:12:26.588Z,27.63
2022-11-16T07:14:55.268Z,27.45
2022-11-16T07:17:21.719Z,29.38
2022-11-16T07:19:48.177Z,27.85
2022-11-16T07:22:14.650Z,28.60
2022-11-16T07:24:41.160Z,27.02
2022-11-16T07:27:08.465Z,27.35
2022-11-16T07:29:37.779Z,28.90
2022-11-16T07:32:04.584Z,29.63
2022-11-16T07:34:31.512Z,30.20
2022-11-16T07:36:58.293Z,29.08
2022-11-16T07:39:24.724Z,28.42
2022-11-16T07:41:53.461Z,29.23
2022-11-16T07:44:20.596Z,29.48
2022-11-16T07:46:48.356Z,29.40
2022-11-16T07:49:16.398Z,28.75
2022-11-16T07:51:47.975Z,29.77
2022-11-16T07:54:15.065Z,30.38
2022-11-16T07:56:41.915Z,28.73
2022-11-16T07:59:08.801Z,31.53
2022-11-16T08:01:35.348Z,31.52
2022-11-16T08:04:02.903Z,28.65
2022-11-16T08:06:38.427Z,30.85
2022-11-16T08:09:04.913Z,28.98
2022-11-16T08:11:31.364Z,29.93
2022-11-16T08:13:57.960Z,29.05
2022-11-16T08:16:24.495Z,27.92
2022-11-16T08:18:50.994Z,30.67
2022-11-16T08:21:18.906Z,29.85
2022-11-16T08:23:45.609Z,30.40
2022-11-16T08:26:16.931Z,31.10
2022-11-16T08:28:48.258Z,30.88
2022-11-16T08:31:21.028Z,29.70
2022-11-16T08:33:48.052Z,28.52
2022-11-16T08:36:17.481Z,27.83
2022-11-16T08:38:45.192Z,29.35
2022-11-16T08:41:12.103Z,29.33
2022-11-16T08:43:40.325Z,29.33
2022-11-16T08:46:07.786Z,30.10
2022-11-16T08:48:35.654Z,29.90
2022-11-16T08:51:20.869Z,31.30
2022-11-16T08:53:49.153Z,29.73
2022-11-16T08:56:18.011Z,31.73
2022-11-16T08:58:47.052Z,30.17
2022-11-16T09:01:19.487Z,30.63
2022-11-16T09:03:46.719Z,30.00
2022-11-16T09:06:13.665Z,30.30
2022-11-16T09:08:41.612Z,33.75
2022-11-16T09:11:10.253Z,30.67
2022-11-16T09:13:37.231Z,29.00
2022-11-16T09:16:04.896Z,31.13
2022-11-16T09:18:32.078Z,30.27
2022-11-16T09:20:59.161Z,31.10
2022-11-16T09:23:26.020Z,30.13
2022-11-16T09:25:53.296Z,29.20
2022-11-16T09:28:20.572Z,30.48
2022-11-16T09:30:49.967Z,29.70
2022-11-16T09:33:16.561Z,30.48
2022-11-16T09:35:43.043Z,30.08
2022-11-16T09:38:19.129Z,30.63
2022-11-16T09:40:50.661Z,31.55
2022-11-16T09:43:33.822Z,32.13
2022-11-16T09:46:06.733Z,29.90
2022-11-16T09:48:35.811Z,30.38
2022-11-16T09:51:08.141Z,28.30
2022-11-16T09:53:52.378Z,30.25
2022-11-16T09:56:25.158Z,29.65
2022-11-16T09:59:08.803Z,29.73
2022-11-16T10:01:43.068Z,26.83
2022-11-16T10:04:17.601Z,28.47
2022-11-16T10:07:03.363Z,29.45
2022-11-16T10:09:30.330Z,28.95
2022-11-16T10:12:03.166Z,29.15
2022-11-16T10:14:41.670Z,31.15
2022-11-16T10:17:49.497Z,27.80
2022-11-16T10:20:30.299Z,30.77
2022-11-16T10:23:10.024Z,28.75
2022-11-16T10:25:43.018Z,29.88
2022-11-16T10:28:28.545Z,31.35
2022-11-16T10:31:03.420Z,27.83
2022-11-16T10:33:36.181Z,27.60
2022-11-16T10:36:13.141Z,28.30
2022-11-16T10:38:40.604Z,28.23
2022-11-16T10:41:19.202Z,30.23
2022-11-16T10:43:47.312Z,28.53
2022-11-16T10:46:39.977Z,29.50
2022-11-16T10:49:22.938Z,27.50
2022-11-16T10:51:49.439Z,27.13
2022-11-16T10:54:17.493Z,28.73
2022-11-16T10:56:46.648Z,29.53
2022-11-16T10:59:14.868Z,26.33
2022-11-16T11:01:54.316Z,27.25
2022-11-16T11:04:30.152Z,29.23
2022-11-16T11:07:00.384Z,27.45
2022-11-16T11:09:31.378Z,29.20
2022-11-16T11:12:32.253Z,26.92
2022-11-16T11:15:02.925Z,26.80
2022-11-16T11:17:30.971Z,27.17
2022-11-16T11:20:04.250Z,27.73
2022-11-16T11:22:35.479Z,26.37
2022-11-16T11:25:03.565Z,28.48
2022-11-16T11:27:33.908Z,26.42
2022-11-16T11:30:00.449Z,28.77
2022-11-16T11:32:32.492Z,25.33
2022-11-16T11:35:00.380Z,26.13
2022-11-16T11:37:35.657Z,26.85
2022-11-16T11:40:06.254Z,24.50
2022-11-16T11:42:32.697Z,24.25
2022-11-16T11:45:03.862Z,24.38
2022-11-16T11:48:00.274Z,24.57
2022-11-16T11:50:27.078Z,23.63
2022-11-16T11:52:59.686Z,25.88
2022-11-16T11:55:26.272Z,24.75
2022-11-16T11:57:56.202Z,26.45
2022-11-16T12:00:23.774Z,25.90
2022-11-16T12:02:59.194Z,23.85
2022-11-16T12:05:45.699Z,24.52
2022-11-16T12:08:24.212Z,23.77
2022-11-16T12:11:17.673Z,24.30
2022-11-16T12:14:10.678Z,23.07
2022-11-16T12:16:59.052Z,24.95
2022-11-16T12:19:48.673Z,24.52
2022-11-16T12:22:27.354Z,23.52
2022-11-16T12:25:35.514Z,25.73
2022-11-16T12:28:13.855Z,22.87
2022-11-16T12:30:59.325Z,24.15
2022-11-16T12:33:55.068Z,22.92
2022-11-16T12:36:51.451Z,22.77
2022-11-16T12:39:29.478Z,24.35
2022-11-16T12:42:01.963Z,23.43
2022-11-16T12:44:49.377Z,23.58
2022-11-16T12:47:34.942Z,22.40
2022-11-16T12:50:36.213Z,23.85
2022-11-16T12:53:10.523Z,24.63
2022-11-16T12:56:05.017Z,25.30
2022-11-16T12:58:34.392Z,24.48
2022-11-16T13:01:34.511Z,27.67
2022-11-16T13:04:25.995Z,23.83
2022-11-16T13:06:57.017Z,24.40
2022-11-16T13:09:26.726Z,24.63
2022-11-16T13:11:57.504Z,28.75
2022-11-16T13:14:36.916Z,26.25
2022-11-16T13:17:03.929Z,23.60
2022-11-16T13:19:30.504Z,25.48
2022-11-16T13:22:03.521Z,23.17
2022-11-16T13:25:04.100Z,21.42
2022-11-16T13:27:36.965Z,24.52
2022-11-16T13:30:09.517Z,21.70
2022-11-16T13:32:46.002Z,23.65
2022-11-16T13:35:15.221Z,21.30
2022-11-16T13:37:42.845Z,21.25
2022-11-16T13:40:20.095Z,22.48
2022-11-16T13:43:06.480Z,22.67
2022-11-16T13:45:42.855Z,22.10
2022-11-16T13:48:20.112Z,20.63
2022-11-16T13:50:49.299Z,21.25
2022-11-16T13:56:29.104Z,20.95
2022-11-16T13:58:57.356Z,19.05
2022-11-16T14:01:24.040Z,19.77
2022-11-16T14:03:51.900Z,18.30
2022-11-16T14:06:24.438Z,18.63
2022-11-16T14:08:58.011Z,18.83
2022-11-16T14:11:32.464Z,18.60
2022-11-16T14:14:01.440Z,17.80
2022-11-16T14:16:29.104Z,17.70
2022-11-16T14:18:59.340Z,19.83
2022-11-16T14:21:26.725Z,17.30
2022-11-16T14:24:02.207Z,18.38
2022-11-16T14:27:03.635Z,16.97
2022-11-16T14:29:46.276Z,16.23
2022-11-16T14:32:26.824Z,16.83
2022-11-16T14:34:55.371Z,17.80
2022-11-16T14:37:21.793Z,16.13
2022-11-16T14:39:50.190Z,17.53
2022-11-16T14:42:20.099Z,16.27
2022-11-16T14:44:46.742Z,17.40
2022-11-16T14:47:25.484Z,17.20
2022-11-16T14:49:53.029Z,16.58
2022-11-16T14:52:36.846Z,16.50
2022-11-16T14:55:09.199Z,16.45
2022-11-16T14:57:36.027Z,19.08
2022-11-16T15:00:10.057Z,17.58
2022-11-16T15:02:37.281Z,17.35
2022-11-16T15:05:04.039Z,18.90
2022-11-16T15:07:30.765Z,18.27
2022-11-16T15:09:59.318Z,18.50
2022-11-16T15:12:42.530Z,17.95
2022-11-16T15:15:16.922Z,18.95
2022-11-16T15:17:45.946Z,18.57
2022-11-16T15:20:21.128Z,18.20
2022-11-16T15:22:51.054Z,19.77
2022-11-16T15:25:51.824Z,18.55
2022-11-16T15:28:22.316Z,19.27
2022-11-16T15:30:51.155Z,19.97
2022-11-16T15:33:19.963Z,19.25
2022-11-16T15:35:47.254Z,19.20
2022-11-16T15:38:17.609Z,19.08
2022-11-16T15:41:07.181Z,18.67
2022-11-16T15:43:45.208Z,19.93
2022-11-16T15:46:16.914Z,18.35
2022-11-16T15:48:43.536Z,17.75
2022-11-16T15:51:23.412Z,18.27
2022-11-16T15:53:51.818Z,17.00
2022-11-16T15:56:27.353Z,17.10
2022-11-16T15:58:55.022Z,17.60
2022-11-16T16:01:22.121Z,19.33
2022-11-16T16:04:03.637Z,18.88
2022-11-16T16:06:52.108Z,17.20
2022-11-16T16:09:21.403Z,19.07
2022-11-16T16:11:48.090Z,17.65
2022-11-16T16:14:29.268Z,16.55
2022-11-16T16:16:58.776Z,18.05
2022-11-16T16:19:31.191Z,17.23
2022-11-16T16:21:59.433Z,17.83
2022-11-16T16:24:36.870Z,16.80
2022-11-16T17:42:37.797Z,15.40
2022-11-16T17:45:04.661Z,14.85
2022-11-16T17:47:32.918Z,14.73
2022-11-16T17:49:59.652Z,14.27
2022-11-16T17:52:26.624Z,16.03
2022-11-16T17:54:53.032Z,14.55
2022-11-16T17:57:19.488Z,15.88
2022-11-16T17:59:46.680Z,15.80
2022-11-16T18:02:13.909Z,13.70
2022-11-16T18:04:40.323Z,14.27
2022-11-16T18:07:06.836Z,13.57
2022-11-16T18:09:33.294Z,13.65
2022-11-16T18:11:59.771Z,13.50
2022-11-16T18:14:26.747Z,14.00
2022-11-16T18:16:53.233Z,13.33
2022-11-16T18:19:20.125Z,13.32
2022-11-16T18:21:49.993Z,13.15
2022-11-16T18:24:16.470Z,12.70
2022-11-16T18:26:43.097Z,12.70
2022-11-16T18:29:12.810Z,12.20
2022-11-16T18:31:39.311Z,12.85
2022-11-16T18:34:06.014Z,11.45
2022-11-16T18:36:32.456Z,13.38
2022-11-16T18:38:58.908Z,12.60
2022-11-16T18:41:28.169Z,12.63
2022-11-16T18:43:57.344Z,12.50
2022-11-16T18:46:31.552Z,11.95
2022-11-16T18:48:59.685Z,11.73
2022-11-16T18:51:27.410Z,12.88
2022-11-16T18:53:54.450Z,12.13
2022-11-16T18:56:21.111Z,12.73
2022-11-16T18:58:52.200Z,11.85
2022-11-16T19:01:21.899Z,11.55
2022-11-16T19:03:48.498Z,11.15
2022-11-16T19:06:17.037Z,11.33
2022-11-16T19:08:44.112Z,10.88
2022-11-16T19:11:13.257Z,10.15
2022-11-16T19:13:40.889Z,9.80
2022-11-16T19:16:08.685Z,10.52
2022-11-16T19:18:36.280Z,10.33
2022-11-16T19:21:03.815Z,12.23
2022-11-16T19:23:30.701Z,10.90
2022-11-16T19:26:01.772Z,11.48
2022-11-16T19:28:28.245Z,10.40
2022-11-16T19:30:54.682Z,11.50
2022-11-16T19:33:21.304Z,10.60
2022-11-16T19:35:47.843Z,10.75
2022-11-16T19:38:14.498Z,10.77
2022-11-16T19:40:41.040Z,9.75
2022-11-16T19:43:07.523Z,8.60
2022-11-16T19:45:33.948Z,9.45
2022-11-16T19:48:00.408Z,9.35
2022-11-16T19:50:26.845Z,8.52
2022-11-16T19:52:53.285Z,8.88
2022-11-16T19:55:19.721Z,9.93
2022-11-16T19:57:46.136Z,9.85
2022-11-16T20:00:13.091Z,10.02
2022-11-16T20:02:39.520Z,10.05
2022-11-16T20:05:06.498Z,9.75
2022-11-16T20:07:32.981Z,9.50
2022-11-16T20:09:59.489Z,10.60
2022-11-16T20:12:27.158Z,9.57
2022-11-16T20:14:53.740Z,10.07
2022-11-16T20:17:20.154Z,9.52
2022-11-16T20:19:46.581Z,9.30
2022-11-16T20:22:13.125Z,11.25
2022-11-16T20:24:39.607Z,9.95
2022-11-16T20:27:06.271Z,10.90
2022-11-16T20:29:32.744Z,9.70
2022-11-16T20:31:59.191Z,10.80
2022-11-16T20:34:25.624Z,11.27
2022-11-16T20:36:52.059Z,11.68
2022-11-16T20:39:20.269Z,12.98
2022-11-16T20:41:47.878Z,12.05
2022-11-16T20:44:18.334Z,12.37
2022-11-16T20:46:45.206Z,12.50
2022-11-16T20:49:11.754Z,12.45
2022-11-16T20:51:38.253Z,13.07
2022-11-16T20:54:04.946Z,12.65
2022-11-16T20:56:31.453Z,13.30
2022-11-16T20:58:59.475Z,13.68
2022-11-16T21:01:31.847Z,12.95
2022-11-16T21:04:00.935Z,13.07
2022-11-16T21:06:27.690Z,13.00
2022-11-16T21:08:54.740Z,13.00
2022-11-16T21:11:25.392Z,14.40
2022-11-16T21:14:10.791Z,13.48
2022-11-16T21:16:37.785Z,12.43
2022-11-16T21:19:04.385Z,13.50
